Time;durP1;ratioP1;P1;durP2;ratioP2;P2;SDS_P1;SDS_P2;PMS_P1;PMS_P2;Temp;Humidity;BMP_temperature;BMP_pressure;BME280_temperature;BME280_humidity;BME280_pressure;Samples;Min_cycle;Max_cycle;Signal;HPM_P1;HPM_P2
2024/01/07 00:02:26;;;;;;;13.80;10.50;;;;;;;;;;5025032;28;20229;-72
2024/01/07 00:04:53;;;;;;;14.47;10.53;;;;;;;;;;5016669;28;20234;-71
2024/01/07 00:07:21;;;;;;;14.00;10.20;;;;;;;;;;5021620;28;20269;-72
2024/01/07 00:09:48;;;;;;;14.53;9.67;;;;;;;;;;5024359;28;20248;-70
2024/01/07 00:12:15;;;;;;;12.63;9.60;;;;;;;;;;5021145;28;20207;-71
2024/01/07 00:14:43;;;;;;;15.80;10.80;;;;;;;;;;5014759;28;20647;-70
2024/01/07 00:17:11;;;;;;;12.47;9.70;;;;;;;;;;5021344;28;20216;-73
2024/01/07 00:19:39;;;;;;;12.30;9.33;;;;;;;;;;5004589;28;20207;-72
2024/01/07 00:22:06;;;;;;;12.87;9.67;;;;;;;;;;4990184;28;20210;-72
2024/01/07 00:24:34;;;;;;;15.03;9.80;;;;;;;;;;5007348;28;20229;-72
2024/01/07 00:27:01;;;;;;;12.07;9.13;;;;;;;;;;5020691;28;20210;-72
2024/01/07 00:29:30;;;;;;;12.80;8.87;;;;;;;;;;5020982;28;20211;-70
2024/01/07 00:31:57;;;;;;;12.33;8.90;;;;;;;;;;5026378;28;20573;-71
2024/01/07 00:34:24;;;;;;;10.70;8.30;;;;;;;;;;5021528;28;20215;-71
2024/01/07 00:36:52;;;;;;;11.17;8.33;;;;;;;;;;5020737;28;20234;-70
2024/01/07 00:39:19;;;;;;;11.57;9.07;;;;;;;;;;5024310;28;20264;-70
2024/01/07 00:41:46;;;;;;;12.97;9.60;;;;;;;;;;5023117;28;20612;-71
2024/01/07 00:44:14;;;;;;;11.93;8.67;;;;;;;;;;5019800;28;20219;-70
2024/01/07 00:46:42;;;;;;;11.53;7.97;;;;;;;;;;5019298;28;20199;-72
2024/01/07 00:49:14;;;;;;;11.00;8.33;;;;;;;;;;5017048;28;20214;-71
2024/01/07 00:51:41;;;;;;;10.57;8.47;;;;;;;;;;5019766;28;20209;-70
2024/01/07 00:54:09;;;;;;;11.10;8.20;;;;;;;;;;5006415;28;20237;-70
2024/01/07 00:56:36;;;;;;;11.87;8.73;;;;;;;;;;5020843;28;20207;-70
2024/01/07 00:59:04;;;;;;;11.63;8.83;;;;;;;;;;5019987;28;20234;-72
2024/01/07 01:01:32;;;;;;;11.73;8.83;;;;;;;;;;5021130;28;20231;-71
2024/01/07 01:04:01;;;;;;;13.03;9.17;;;;;;;;;;5023752;28;20231;-69
2024/01/07 01:06:28;;;;;;;11.37;8.13;;;;;;;;;;5030329;28;20207;-71
2024/01/07 01:08:56;;;;;;;11.53;8.33;;;;;;;;;;5029328;28;20555;-69
2024/01/07 01:11:23;;;;;;;12.00;8.97;;;;;;;;;;5038687;28;20229;-70
2024/01/07 01:13:51;;;;;;;12.07;8.97;;;;;;;;;;5032031;28;20267;-70
2024/01/07 01:16:18;;;;;;;11.83;8.63;;;;;;;;;;5034495;28;20211;-69
2024/01/07 01:18:49;;;;;;;11.63;8.70;;;;;;;;;;5044148;28;20210;-69
2024/01/07 01:21:17;;;;;;;9.70;7.77;;;;;;;;;;5043009;28;20206;-70
2024/01/07 01:23:44;;;;;;;10.43;8.50;;;;;;;;;;5042596;28;20243;-71
2024/01/07 01:26:11;;;;;;;10.60;8.90;;;;;;;;;;5030887;28;20257;-70
2024/01/07 01:28:39;;;;;;;12.03;8.63;;;;;;;;;;5046010;28;20630;-72
2024/01/07 01:31:06;;;;;;;11.57;9.13;;;;;;;;;;5048161;28;20206;-69
2024/01/07 01:33:33;;;;;;;13.03;9.13;;;;;;;;;;5029236;28;20230;-72
2024/01/07 01:36:05;;;;;;;10.77;8.27;;;;;;;;;;5030222;28;20214;-72
2024/01/07 01:38:33;;;;;;;11.67;8.77;;;;;;;;;;5040786;28;20218;-69
2024/01/07 01:41:00;;;;;;;11.30;9.00;;;;;;;;;;5028887;28;20206;-71
2024/01/07 01:43:28;;;;;;;14.30;9.37;;;;;;;;;;5029668;28;20265;-72
2024/01/07 01:45:56;;;;;;;13.40;9.30;;;;;;;;;;5030291;28;20657;-71
2024/01/07 01:48:24;;;;;;;12.47;9.23;;;;;;;;;;5012226;28;20261;-71
2024/01/07 01:50:54;;;;;;;11.27;9.03;;;;;;;;;;5017822;28;20749;-71
2024/01/07 01:53:21;;;;;;;11.27;8.37;;;;;;;;;;5032577;28;20231;-71
2024/01/07 01:55:48;;;;;;;13.37;8.87;;;;;;;;;;5030195;28;20199;-70
2024/01/07 01:58:18;;;;;;;10.53;7.90;;;;;;;;;;5029985;28;20211;-69
2024/01/07 02:00:46;;;;;;;10.73;8.50;;;;;;;;;;5028719;28;20210;-72
2024/01/07 02:03:13;;;;;;;11.13;8.23;;;;;;;;;;5033037;28;20223;-69
2024/01/07 02:05:41;;;;;;;10.53;8.17;;;;;;;;;;5033105;28;20740;-70
2024/01/07 02:08:08;;;;;;;11.03;8.00;;;;;;;;;;5033079;28;20203;-70
2024/01/07 02:10:36;;;;;;;10.43;8.03;;;;;;;;;;5035890;28;20259;-72
2024/01/07 02:13:07;;;;;;;10.20;7.90;;;;;;;;;;5027001;28;20227;-72
2024/01/07 02:15:34;;;;;;;9.80;7.67;;;;;;;;;;5020563;28;20237;-69
2024/01/07 02:18:02;;;;;;;10.97;8.50;;;;;;;;;;5051291;28;20209;-74
2024/01/07 02:20:29;;;;;;;10.70;8.13;;;;;;;;;;5046680;28;20647;-71
2024/01/07 02:22:59;;;;;;;10.37;7.87;;;;;;;;;;5033084;28;20235;-71
2024/01/07 02:25:27;;;;;;;10.50;8.13;;;;;;;;;;5033432;28;20750;-71
2024/01/07 02:27:54;;;;;;;9.50;6.87;;;;;;;;;;5015604;28;20269;-71
2024/01/07 02:30:21;;;;;;;9.90;7.43;;;;;;;;;;5033443;28;20298;-71
2024/01/07 02:32:49;;;;;;;9.30;7.57;;;;;;;;;;5032955;28;20223;-72
2024/01/07 02:35:17;;;;;;;10.13;7.53;;;;;;;;;;5015683;28;20214;-71
2024/01/07 02:37:45;;;;;;;10.70;8.13;;;;;;;;;;5033447;28;20199;-72
2024/01/07 02:40:12;;;;;;;9.23;7.40;;;;;;;;;;5033265;28;20265;-70
2024/01/07 02:42:39;;;;;;;9.37;7.60;;;;;;;;;;5033295;28;20245;-70
2024/01/07 02:45:07;;;;;;;10.73;8.13;;;;;;;;;;5033020;28;20239;-70
2024/01/07 02:47:34;;;;;;;10.97;7.60;;;;;;;;;;5031550;28;20629;-69
2024/01/07 02:50:01;;;;;;;10.63;7.73;;;;;;;;;;5032621;28;20237;-71
2024/01/07 02:52:29;;;;;;;9.00;6.90;;;;;;;;;;5032461;28;20708;-71
2024/01/07 02:54:56;;;;;;;11.27;7.63;;;;;;;;;;5032626;28;20670;-71
2024/01/07 02:57:23;;;;;;;9.87;7.33;;;;;;;;;;5032780;28;20791;-70
2024/01/07 02:59:51;;;;;;;9.53;7.00;;;;;;;;;;5030866;28;20229;-70
2024/01/07 03:02:18;;;;;;;8.53;6.63;;;;;;;;;;5014820;28;20507;-72
2024/01/07 03:04:46;;;;;;;9.17;7.10;;;;;;;;;;5032391;28;20308;-69
2024/01/07 03:07:13;;;;;;;11.13;7.30;;;;;;;;;;5032115;28;20617;-72
2024/01/07 03:09:40;;;;;;;8.43;6.90;;;;;;;;;;5032211;28;20682;-70
2024/01/07 03:12:08;;;;;;;9.20;6.97;;;;;;;;;;5044558;28;20202;-69
2024/01/07 03:14:35;;;;;;;9.17;6.60;;;;;;;;;;5042489;28;20210;-71
2024/01/07 03:17:02;;;;;;;8.43;6.60;;;;;;;;;;5032312;28;20214;-69
2024/01/07 03:19:29;;;;;;;7.07;6.10;;;;;;;;;;5032864;28;20266;-71
2024/01/07 03:21:57;;;;;;;9.50;6.80;;;;;;;;;;5032769;28;20230;-73
2024/01/07 03:24:25;;;;;;;8.83;7.10;;;;;;;;;;5032758;28;20218;-71
2024/01/07 03:26:52;;;;;;;8.00;6.43;;;;;;;;;;5032841;28;20207;-69
2024/01/07 03:29:19;;;;;;;8.80;6.40;;;;;;;;;;5032145;28;20365;-72
2024/01/07 03:31:47;;;;;;;9.37;7.10;;;;;;;;;;5031756;28;20202;-70
2024/01/07 03:34:14;;;;;;;9.43;7.10;;;;;;;;;;5034494;28;20246;-71
2024/01/07 03:36:41;;;;;;;8.43;6.57;;;;;;;;;;5051642;28;20217;-70
2024/01/07 03:39:09;;;;;;;10.63;7.50;;;;;;;;;;5051847;28;20635;-69
2024/01/07 03:41:36;;;;;;;10.30;7.60;;;;;;;;;;5051629;28;20190;-69
2024/01/07 03:44:04;;;;;;;11.83;7.83;;;;;;;;;;5051770;28;20667;-69
2024/01/07 03:46:31;;;;;;;10.40;8.40;;;;;;;;;;5051540;28;20644;-69
2024/01/07 03:48:59;;;;;;;12.87;9.87;;;;;;;;;;5051232;28;20210;-69
2024/01/07 03:51:27;;;;;;;10.57;8.63;;;;;;;;;;5033122;28;20199;-69
2024/01/07 03:53:55;;;;;;;10.37;7.93;;;;;;;;;;5044844;28;20325;-70
2024/01/07 03:56:22;;;;;;;10.67;8.33;;;;;;;;;;5049912;28;20666;-70
2024/01/07 03:58:49;;;;;;;13.30;9.23;;;;;;;;;;5031641;28;20274;-69
2024/01/07 04:01:17;;;;;;;11.03;8.50;;;;;;;;;;5031135;28;20206;-70
2024/01/07 04:03:45;;;;;;;10.83;8.33;;;;;;;;;;5031649;28;20353;-69
2024/01/07 04:06:13;;;;;;;10.90;8.50;;;;;;;;;;5030941;28;20960;-69
2024/01/07 04:08:40;;;;;;;10.43;8.33;;;;;;;;;;5039438;28;20199;-70
2024/01/07 04:11:07;;;;;;;10.53;8.20;;;;;;;;;;5051593;28;20202;-70
2024/01/07 04:13:35;;;;;;;11.10;8.30;;;;;;;;;;5043490;28;20219;-70
2024/01/07 04:16:02;;;;;;;10.00;7.70;;;;;;;;;;5030818;28;20219;-70
2024/01/07 04:18:30;;;;;;;10.50;7.33;;;;;;;;;;5031322;28;20211;-71
2024/01/07 04:20:57;;;;;;;9.50;7.07;;;;;;;;;;5031092;28;20257;-70
2024/01/07 04:23:24;;;;;;;10.93;7.50;;;;;;;;;;5031519;28;20278;-70
2024/01/07 04:25:52;;;;;;;9.50;7.77;;;;;;;;;;5031028;28;20227;-70
2024/01/07 04:28:19;;;;;;;11.73;7.30;;;;;;;;;;5030703;28;20206;-70
2024/01/07 04:30:46;;;;;;;9.90;8.70;;;;;;;;;;5030731;28;20254;-71
2024/01/07 04:33:13;;;;;;;10.43;8.37;;;;;;;;;;5013528;28;20771;-69
2024/01/07 04:35:42;;;;;;;10.53;8.13;;;;;;;;;;5030814;28;20695;-71
2024/01/07 04:38:09;;;;;;;11.07;8.50;;;;;;;;;;5034941;28;20677;-70
2024/01/07 04:40:36;;;;;;;10.83;8.23;;;;;;;;;;5047220;28;20650;-69
2024/01/07 04:43:04;;;;;;;11.30;8.70;;;;;;;;;;5030815;28;20234;-70
2024/01/07 04:45:31;;;;;;;10.40;8.00;;;;;;;;;;5030378;28;20314;-71
2024/01/07 04:47:58;;;;;;;11.27;8.43;;;;;;;;;;5030534;28;20600;-71
2024/01/07 04:50:26;;;;;;;11.13;8.47;;;;;;;;;;5030507;28;20631;-70
2024/01/07 04:52:53;;;;;;;12.53;8.23;;;;;;;;;;5030158;28;20219;-71
2024/01/07 04:55:21;;;;;;;10.23;8.10;;;;;;;;;;5030672;28;20215;-69
2024/01/07 04:57:48;;;;;;;11.47;8.40;;;;;;;;;;5030600;28;20726;-70
2024/01/07 05:00:16;;;;;;;10.50;7.30;;;;;;;;;;5030547;28;20222;-69
2024/01/07 05:02:43;;;;;;;11.07;7.73;;;;;;;;;;5030404;28;20222;-69
2024/01/07 05:05:10;;;;;;;10.30;7.60;;;;;;;;;;5030436;28;20309;-71
2024/01/07 05:07:38;;;;;;;11.40;8.30;;;;;;;;;;5030162;28;20200;-70
2024/01/07 05:10:05;;;;;;;10.67;8.50;;;;;;;;;;5012554;28;20203;-72
2024/01/07 05:12:33;;;;;;;13.83;9.23;;;;;;;;;;5030222;28;20642;-72
2024/01/07 05:15:00;;;;;;;11.60;8.20;;;;;;;;;;5030492;28;20226;-69
2024/01/07 05:17:29;;;;;;;12.43;9.87;;;;;;;;;;5030219;28;20205;-71
2024/01/07 05:19:56;;;;;;;13.37;9.90;;;;;;;;;;5030836;28;20199;-69
2024/01/07 05:22:24;;;;;;;12.63;9.33;;;;;;;;;;5012892;28;20588;-71
2024/01/07 05:24:51;;;;;;;12.10;8.60;;;;;;;;;;5030553;28;20222;-71
2024/01/07 05:27:18;;;;;;;10.63;8.20;;;;;;;;;;5030602;28;20600;-69
2024/01/07 05:29:46;;;;;;;10.77;8.37;;;;;;;;;;5030517;28;20674;-69
2024/01/07 05:32:14;;;;;;;11.77;8.37;;;;;;;;;;5030488;28;20213;-71
2024/01/07 05:34:44;;;;;;;12.83;8.63;;;;;;;;;;5030673;28;20272;-69
2024/01/07 05:37:11;;;;;;;11.27;8.33;;;;;;;;;;5033036;28;20846;-76
2024/01/07 05:39:38;;;;;;;13.33;9.30;;;;;;;;;;5033842;28;20202;-71
2024/01/07 05:42:06;;;;;;;13.07;9.93;;;;;;;;;;5033926;28;20226;-72
2024/01/07 05:44:33;;;;;;;12.23;9.77;;;;;;;;;;5034401;28;20562;-69
2024/01/07 05:47:00;;;;;;;12.00;10.03;;;;;;;;;;5033576;28;20486;-71
2024/01/07 05:49:27;;;;;;;13.13;9.43;;;;;;;;;;5033895;28;20207;-71
2024/01/07 05:51:55;;;;;;;13.60;9.97;;;;;;;;;;5033934;28;20195;-71
2024/01/07 05:54:22;;;;;;;12.03;9.97;;;;;;;;;;5033535;28;20227;-71
2024/01/07 05:56:49;;;;;;;12.90;9.67;;;;;;;;;;5033661;28;20292;-71
2024/01/07 05:59:17;;;;;;;17.83;10.40;;;;;;;;;;5033978;28;20203;-72
2024/01/07 06:01:44;;;;;;;12.70;9.67;;;;;;;;;;5033769;28;20206;-70
2024/01/07 06:04:11;;;;;;;15.43;10.00;;;;;;;;;;5040298;28;20263;-71
2024/01/07 06:06:39;;;;;;;12.27;9.13;;;;;;;;;;5052846;28;20214;-71
2024/01/07 06:09:07;;;;;;;11.43;9.33;;;;;;;;;;5035730;28;20666;-69
2024/01/07 06:11:34;;;;;;;11.17;9.33;;;;;;;;;;5053566;28;20662;-70
2024/01/07 06:14:02;;;;;;;12.37;9.53;;;;;;;;;;5035252;28;20234;-72
2024/01/07 06:16:29;;;;;;;13.70;9.73;;;;;;;;;;5053202;28;20229;-71
2024/01/07 06:18:56;;;;;;;15.37;11.20;;;;;;;;;;5053909;28;20233;-70
2024/01/07 06:21:23;;;;;;;14.47;10.93;;;;;;;;;;5053228;28;20772;-72
2024/01/07 06:23:51;;;;;;;12.63;10.00;;;;;;;;;;5053197;28;20230;-71
2024/01/07 06:26:18;;;;;;;17.30;12.67;;;;;;;;;;5052855;28;20230;-71
2024/01/07 06:28:45;;;;;;;13.17;10.27;;;;;;;;;;5052854;28;20244;-71
2024/01/07 06:31:12;;;;;;;13.87;10.83;;;;;;;;;;5053103;28;20666;-70
2024/01/07 06:33:40;;;;;;;29.10;19.60;;;;;;;;;;5035495;28;20647;-70
2024/01/07 06:36:07;;;;;;;22.87;15.90;;;;;;;;;;5053202;28;20245;-71
2024/01/07 06:38:35;;;;;;;14.87;11.57;;;;;;;;;;5053333;28;20673;-71
2024/01/07 06:41:04;;;;;;;49.00;28.27;;;;;;;;;;5053114;28;20693;-70
2024/01/07 06:43:32;;;;;;;33.33;19.67;;;;;;;;;;5052756;28;20262;-71
2024/01/07 06:45:59;;;;;;;13.43;9.20;;;;;;;;;;5052389;28;20229;-71
2024/01/07 06:48:26;;;;;;;38.70;25.40;;;;;;;;;;5052255;28;20202;-71
2024/01/07 06:50:54;;;;;;;10.80;8.80;;;;;;;;;;5053084;28;20206;-69
2024/01/07 06:53:21;;;;;;;11.93;8.73;;;;;;;;;;5034544;28;20226;-72
2024/01/07 06:55:49;;;;;;;10.70;8.63;;;;;;;;;;5034998;28;20210;-72
2024/01/07 06:58:16;;;;;;;9.53;8.13;;;;;;;;;;5052177;28;20210;-69
2024/01/07 07:00:43;;;;;;;10.10;8.70;;;;;;;;;;5034426;28;20596;-70
2024/01/07 07:03:11;;;;;;;10.40;9.10;;;;;;;;;;5034224;28;20226;-70
2024/01/07 07:05:38;;;;;;;8.63;7.73;;;;;;;;;;5052081;28;20241;-71
2024/01/07 07:08:06;;;;;;;9.60;8.27;;;;;;;;;;5052345;28;20206;-71
2024/01/07 07:10:33;;;;;;;8.87;7.67;;;;;;;;;;5034886;28;20638;-70
2024/01/07 07:13:01;;;;;;;9.97;8.00;;;;;;;;;;5030853;28;20234;-70
2024/01/07 07:15:28;;;;;;;8.47;7.13;;;;;;;;;;5014440;28;20211;-71
2024/01/07 07:18:05;;;;;;;11.93;10.73;;;;;;;;;;5015174;28;20580;-69
2024/01/07 07:20:33;;;;;;;9.80;7.87;;;;;;;;;;5032289;28;20783;-70
2024/01/07 07:23:00;;;;;;;10.03;8.53;;;;;;;;;;5032467;28;20226;-71
2024/01/07 07:25:27;;;;;;;7.93;7.13;;;;;;;;;;5032241;28;20809;-72
2024/01/07 07:27:56;;;;;;;6.87;6.17;;;;;;;;;;5032333;28;20211;-71
2024/01/07 07:30:23;;;;;;;8.10;7.13;;;;;;;;;;5032258;28;20214;-69
2024/01/07 07:32:54;;;;;;;8.73;7.40;;;;;;;;;;5031901;28;20238;-70
2024/01/07 07:35:21;;;;;;;27.80;18.10;;;;;;;;;;5031883;28;20340;-69
2024/01/07 07:37:48;;;;;;;21.40;14.97;;;;;;;;;;5031927;28;20682;-70
2024/01/07 07:40:15;;;;;;;66.07;33.37;;;;;;;;;;5031918;28;20210;-72
2024/01/07 07:42:43;;;;;;;10.17;7.63;;;;;;;;;;5032255;28;20223;-69
2024/01/07 07:45:11;;;;;;;9.37;8.37;;;;;;;;;;5032081;28;20203;-70
2024/01/07 07:47:41;;;;;;;50.70;25.80;;;;;;;;;;5031288;28;20310;-70
2024/01/07 07:50:10;;;;;;;10.77;8.63;;;;;;;;;;5031154;28;20195;-71
2024/01/07 07:52:37;;;;;;;13.07;10.27;;;;;;;;;;5031588;28;20522;-70
2024/01/07 07:55:06;;;;;;;11.33;9.23;;;;;;;;;;5031415;28;20218;-72
2024/01/07 07:57:34;;;;;;;11.77;9.43;;;;;;;;;;5031465;28;20765;-72
2024/01/07 08:00:02;;;;;;;33.77;20.77;;;;;;;;;;5030797;28;20210;-69
2024/01/07 08:02:31;;;;;;;15.77;12.53;;;;;;;;;;5031426;28;20231;-71
2024/01/07 08:04:58;;;;;;;19.70;14.40;;;;;;;;;;5031114;28;20211;-69
2024/01/07 08:07:26;;;;;;;14.43;11.50;;;;;;;;;;5031326;28;20234;-69
2024/01/07 08:09:53;;;;;;;123.93;74.20;;;;;;;;;;5031196;28;20203;-69
2024/01/07 08:12:21;;;;;;;20.43;17.13;;;;;;;;;;5013577;28;20223;-71
2024/01/07 08:14:49;;;;;;;15.40;12.73;;;;;;;;;;5030973;28;20239;-70
2024/01/07 08:17:16;;;;;;;14.87;11.83;;;;;;;;;;5017854;28;20202;-70
2024/01/07 08:19:44;;;;;;;14.43;11.57;;;;;;;;;;4995087;28;20215;-71
2024/01/07 08:22:12;;;;;;;16.73;12.60;;;;;;;;;;5011669;28;20226;-71
2024/01/07 08:24:39;;;;;;;17.40;14.57;;;;;;;;;;5005988;28;20338;-72
2024/01/07 08:27:07;;;;;;;17.40;13.73;;;;;;;;;;5008582;28;20218;-67
2024/01/07 08:29:35;;;;;;;18.10;13.37;;;;;;;;;;5015099;28;20235;-71
2024/01/07 08:32:02;;;;;;;20.13;14.63;;;;;;;;;;5011775;28;20207;-71
2024/01/07 08:34:30;;;;;;;16.07;12.80;;;;;;;;;;4998925;28;20202;-74
2024/01/07 08:36:57;;;;;;;16.20;12.87;;;;;;;;;;5007570;28;20207;-73
2024/01/07 08:39:25;;;;;;;17.17;12.77;;;;;;;;;;5005486;28;20312;-73
2024/01/07 08:41:54;;;;;;;15.33;12.30;;;;;;;;;;5009848;28;20692;-72
2024/01/07 08:44:21;;;;;;;17.43;12.57;;;;;;;;;;5001218;28;20234;-74
2024/01/07 08:46:48;;;;;;;14.43;11.83;;;;;;;;;;5000552;28;20234;-72
2024/01/07 08:49:16;;;;;;;18.23;13.00;;;;;;;;;;5006131;28;20211;-73
2024/01/07 08:51:43;;;;;;;24.83;16.93;;;;;;;;;;5009462;28;20207;-74
2024/01/07 08:54:11;;;;;;;34.83;20.30;;;;;;;;;;4989934;28;20230;-72
2024/01/07 08:56:39;;;;;;;21.87;14.07;;;;;;;;;;5000716;28;20216;-73
2024/01/07 08:59:06;;;;;;;16.60;12.80;;;;;;;;;;4984292;28;20337;-73
2024/01/07 09:01:35;;;;;;;20.30;15.10;;;;;;;;;;5009690;28;20222;-73
2024/01/07 09:04:02;;;;;;;16.20;13.10;;;;;;;;;;5005976;28;20244;-72
2024/01/07 09:06:30;;;;;;;15.83;13.13;;;;;;;;;;5016745;28;20358;-72
2024/01/07 09:08:57;;;;;;;16.53;13.53;;;;;;;;;;5016845;28;20745;-73
2024/01/07 09:11:24;;;;;;;25.20;17.37;;;;;;;;;;5025777;28;20384;-72
2024/01/07 09:13:52;;;;;;;21.80;15.27;;;;;;;;;;5031733;28;20257;-72
2024/01/07 09:16:19;;;;;;;16.30;13.33;;;;;;;;;;5010030;28;20678;-71
2024/01/07 09:18:47;;;;;;;16.77;13.57;;;;;;;;;;5017474;28;20290;-71
2024/01/07 09:21:15;;;;;;;15.07;12.33;;;;;;;;;;5012129;28;20213;-72
2024/01/07 09:23:42;;;;;;;22.00;15.47;;;;;;;;;;5008396;28;20237;-70
2024/01/07 09:26:09;;;;;;;34.50;22.13;;;;;;;;;;5014301;28;20218;-72
2024/01/07 09:28:40;;;;;;;14.60;12.03;;;;;;;;;;5007397;28;20242;-73
2024/01/07 09:31:07;;;;;;;16.73;11.90;;;;;;;;;;5017004;28;20210;-72
2024/01/07 09:33:35;;;;;;;13.20;11.47;;;;;;;;;;5017922;28;20230;-73
2024/01/07 09:36:02;;;;;;;14.33;11.73;;;;;;;;;;5009124;28;20211;-73
2024/01/07 09:38:46;;;;;;;29.47;22.00;;;;;;;;;;5015622;28;20229;-71
2024/01/07 09:41:14;;;;;;;15.17;12.00;;;;;;;;;;5020560;28;20207;-72
2024/01/07 09:43:41;;;;;;;14.23;10.73;;;;;;;;;;5012004;28;20224;-72
2024/01/07 09:46:10;;;;;;;13.40;11.20;;;;;;;;;;5010890;28;20682;-72
2024/01/07 09:48:38;;;;;;;14.00;10.93;;;;;;;;;;5011697;28;20585;-70
2024/01/07 09:51:08;;;;;;;13.13;10.40;;;;;;;;;;5035180;28;20257;-71
2024/01/07 09:53:36;;;;;;;13.50;10.60;;;;;;;;;;5032160;28;20225;-71
2024/01/07 09:56:33;;;;;;;13.27;10.30;;;;;;;;;;5051071;28;20268;-71
2024/01/07 09:59:00;;;;;;;18.60;12.50;;;;;;;;;;5027358;28;20298;-68
2024/01/07 10:01:28;;;;;;;21.23;14.10;;;;;;;;;;5036674;28;20203;-72
2024/01/07 10:03:56;;;;;;;15.00;9.80;;;;;;;;;;5017882;28;20223;-71
2024/01/07 10:06:24;;;;;;;20.80;12.47;;;;;;;;;;5010755;28;20222;-73
2024/01/07 10:08:54;;;;;;;17.87;11.10;;;;;;;;;;5015953;28;20204;-71
2024/01/07 10:11:22;;;;;;;34.63;20.43;;;;;;;;;;5038580;28;20202;-71
2024/01/07 10:13:52;;;;;;;31.27;17.97;;;;;;;;;;5030797;28;20226;-71
2024/01/07 10:16:20;;;;;;;31.07;18.30;;;;;;;;;;4997493;28;20199;-71
2024/01/07 10:18:47;;;;;;;56.73;29.97;;;;;;;;;;5005821;28;20211;-69
2024/01/07 10:21:15;;;;;;;21.40;14.40;;;;;;;;;;5030041;28;20658;-69
2024/01/07 10:23:43;;;;;;;22.70;15.87;;;;;;;;;;5009017;28;20226;-71
2024/01/07 10:26:10;;;;;;;23.90;16.10;;;;;;;;;;5006369;28;20206;-70
2024/01/07 10:28:53;;;;;;;23.47;14.83;;;;;;;;;;5008669;28;20246;-72
2024/01/07 10:31:20;;;;;;;19.77;13.80;;;;;;;;;;5005462;28;20292;-71
2024/01/07 10:33:49;;;;;;;19.90;13.70;;;;;;;;;;5009388;28;20250;-73
2024/01/07 10:36:17;;;;;;;32.07;20.07;;;;;;;;;;4977892;28;20218;-73
2024/01/07 10:38:45;;;;;;;21.87;13.70;;;;;;;;;;5008497;28;20329;-72
2024/01/07 10:41:15;;;;;;;24.47;15.30;;;;;;;;;;5007841;28;20219;-72
2024/01/07 10:43:42;;;;;;;22.60;14.50;;;;;;;;;;5008917;28;20238;-71
2024/01/07 10:46:11;;;;;;;20.93;14.27;;;;;;;;;;5002096;28;20217;-73
2024/01/07 10:48:42;;;;;;;24.07;14.47;;;;;;;;;;5014193;28;20231;-73
2024/01/07 10:51:10;;;;;;;32.47;16.07;;;;;;;;;;5011386;28;20792;-72
2024/01/07 10:53:39;;;;;;;29.30;18.50;;;;;;;;;;5009439;28;20227;-73
2024/01/07 10:56:11;;;;;;;29.43;16.63;;;;;;;;;;5011830;28;20210;-72
2024/01/07 10:58:40;;;;;;;37.77;22.50;;;;;;;;;;5006500;28;20202;-72
2024/01/07 11:01:08;;;;;;;27.67;17.10;;;;;;;;;;5005986;28;20210;-72
2024/01/07 11:03:39;;;;;;;29.03;18.93;;;;;;;;;;5005887;28;20743;-70
2024/01/07 11:06:09;;;;;;;25.13;15.60;;;;;;;;;;5011424;28;20211;-72
2024/01/07 11:08:45;;;;;;;22.63;14.80;;;;;;;;;;5005297;28;20270;-70
2024/01/07 11:11:18;;;;;;;26.00;14.80;;;;;;;;;;5000917;28;20544;-71
2024/01/07 11:13:46;;;;;;;24.67;14.30;;;;;;;;;;4983482;28;20226;-73
2024/01/07 11:16:14;;;;;;;28.60;17.53;;;;;;;;;;5010842;28;20211;-71
2024/01/07 11:18:51;;;;;;;21.67;12.87;;;;;;;;;;5031988;28;20203;-69
2024/01/07 11:21:24;;;;;;;24.00;14.37;;;;;;;;;;5014759;28;20581;-71
2024/01/07 11:23:53;;;;;;;40.93;20.93;;;;;;;;;;5032132;28;20309;-71
2024/01/07 11:26:21;;;;;;;23.93;14.37;;;;;;;;;;5031861;28;20250;-70
2024/01/07 11:28:48;;;;;;;28.17;14.00;;;;;;;;;;5014743;28;20301;-70
2024/01/07 11:31:17;;;;;;;19.70;12.27;;;;;;;;;;5031563;28;20203;-71
2024/01/07 11:33:46;;;;;;;46.10;14.73;;;;;;;;;;5034930;28;20249;-72
2024/01/07 11:36:14;;;;;;;36.50;14.07;;;;;;;;;;5035325;28;20199;-70
2024/01/07 11:38:45;;;;;;;42.30;19.87;;;;;;;;;;5035639;28;20217;-69
2024/01/07 11:41:17;;;;;;;48.90;17.00;;;;;;;;;;5031774;28;20210;-70
2024/01/07 11:44:03;;;;;;;28.47;14.43;;;;;;;;;;5031721;28;20250;-70
2024/01/07 11:46:34;;;;;;;34.27;14.07;;;;;;;;;;5030247;28;20206;-70
2024/01/07 11:49:02;;;;;;;35.97;17.97;;;;;;;;;;5050758;28;20406;-69
2024/01/07 11:51:31;;;;;;;88.17;38.87;;;;;;;;;;5051612;28;20233;-69
2024/01/07 11:54:00;;;;;;;25.53;15.00;;;;;;;;;;5051046;28;20237;-71
2024/01/07 11:56:28;;;;;;;21.70;14.47;;;;;;;;;;5044551;28;20257;-71
2024/01/07 11:58:56;;;;;;;21.70;13.73;;;;;;;;;;5049026;28;20279;-69
2024/01/07 12:01:26;;;;;;;54.07;26.13;;;;;;;;;;5051325;28;20244;-69
2024/01/07 12:03:54;;;;;;;42.87;24.43;;;;;;;;;;5037300;28;20230;-70
2024/01/07 12:06:22;;;;;;;39.73;16.07;;;;;;;;;;5011148;28;20632;-73
2024/01/07 12:08:49;;;;;;;34.23;15.37;;;;;;;;;;5007419;28;20336;-73
2024/01/07 12:11:17;;;;;;;21.40;14.73;;;;;;;;;;5002973;28;20214;-71
2024/01/07 12:13:44;;;;;;;30.07;17.13;;;;;;;;;;5028802;28;20581;-69
2024/01/07 12:16:12;;;;;;;23.37;15.83;;;;;;;;;;5031277;28;20207;-70
2024/01/07 12:18:40;;;;;;;19.53;12.97;;;;;;;;;;5030563;28;20221;-69
2024/01/07 12:21:09;;;;;;;20.23;12.73;;;;;;;;;;5032229;28;20225;-68
2024/01/07 12:23:37;;;;;;;19.57;12.47;;;;;;;;;;5032149;28;20234;-70
2024/01/07 12:26:10;;;;;;;17.40;11.73;;;;;;;;;;5017148;28;20211;-71
2024/01/07 12:28:37;;;;;;;20.43;12.70;;;;;;;;;;5021898;28;20607;-68
2024/01/07 12:31:05;;;;;;;15.70;11.33;;;;;;;;;;5009233;28;20302;-72
2024/01/07 12:33:34;;;;;;;17.13;11.67;;;;;;;;;;5041519;28;20307;-70
2024/01/07 12:36:02;;;;;;;18.30;11.57;;;;;;;;;;5015915;28;20233;-70
2024/01/07 12:38:30;;;;;;;16.77;11.10;;;;;;;;;;5034234;28;20714;-69
2024/01/07 12:40:57;;;;;;;15.23;10.90;;;;;;;;;;5014644;28;20264;-67
2024/01/07 12:43:25;;;;;;;14.27;10.87;;;;;;;;;;5008781;28;20218;-67
2024/01/07 12:45:55;;;;;;;17.87;11.90;;;;;;;;;;4997204;28;20213;-68
2024/01/07 12:48:23;;;;;;;17.90;12.47;;;;;;;;;;5009824;28;20725;-68
2024/01/07 12:50:50;;;;;;;27.40;18.00;;;;;;;;;;5006031;28;20296;-66
2024/01/07 12:53:17;;;;;;;27.07;16.27;;;;;;;;;;5023727;28;20229;-72
2024/01/07 12:55:45;;;;;;;21.23;13.87;;;;;;;;;;5049643;28;20198;-69
2024/01/07 12:58:12;;;;;;;22.03;14.23;;;;;;;;;;5032312;28;20194;-69
2024/01/07 13:00:40;;;;;;;19.20;13.13;;;;;;;;;;5039580;28;20557;-70
2024/01/07 13:03:13;;;;;;;25.30;15.60;;;;;;;;;;5048401;28;20312;-72
2024/01/07 13:05:42;;;;;;;18.20;12.33;;;;;;;;;;5030965;28;20203;-72
2024/01/07 13:08:10;;;;;;;16.53;11.93;;;;;;;;;;5029373;28;20231;-70
2024/01/07 13:10:37;;;;;;;18.30;13.07;;;;;;;;;;5029572;28;20211;-69
2024/01/07 13:13:05;;;;;;;19.53;13.57;;;;;;;;;;5018154;28;20227;-71
2024/01/07 13:15:42;;;;;;;17.57;11.53;;;;;;;;;;5030397;28;20186;-70
2024/01/07 13:18:11;;;;;;;15.50;10.90;;;;;;;;;;5030108;28;20203;-70
2024/01/07 13:20:40;;;;;;;19.83;13.43;;;;;;;;;;5029992;28;20238;-70
2024/01/07 13:23:07;;;;;;;16.53;11.63;;;;;;;;;;5041816;28;20523;-69
2024/01/07 13:25:34;;;;;;;19.00;12.37;;;;;;;;;;5034200;28;20268;-69
2024/01/07 13:28:02;;;;;;;16.00;11.57;;;;;;;;;;5040159;28;20226;-70
2024/01/07 13:30:29;;;;;;;14.53;10.67;;;;;;;;;;5049756;28;20591;-70
2024/01/07 13:32:58;;;;;;;14.07;10.43;;;;;;;;;;5049854;28;20221;-68
2024/01/07 13:35:26;;;;;;;14.07;10.47;;;;;;;;;;5029343;28;20207;-71
2024/01/07 13:37:54;;;;;;;13.27;9.27;;;;;;;;;;5029848;28;20210;-69
2024/01/07 13:40:21;;;;;;;14.10;9.87;;;;;;;;;;5030049;28;20354;-69
2024/01/07 13:42:50;;;;;;;11.73;9.07;;;;;;;;;;5030222;28;20222;-71
2024/01/07 13:45:20;;;;;;;12.93;9.37;;;;;;;;;;5029300;28;20235;-71
2024/01/07 13:47:48;;;;;;;14.30;9.30;;;;;;;;;;5029653;28;20222;-69
2024/01/07 13:50:15;;;;;;;13.13;9.70;;;;;;;;;;5029814;28;20328;-69
2024/01/07 13:52:43;;;;;;;11.60;8.73;;;;;;;;;;5029205;28;20245;-72
2024/01/07 13:55:10;;;;;;;11.13;8.90;;;;;;;;;;5033331;28;20194;-71
2024/01/07 13:57:41;;;;;;;12.40;9.23;;;;;;;;;;5042566;28;20206;-70
2024/01/07 14:00:10;;;;;;;11.80;9.03;;;;;;;;;;5043015;28;20398;-71
2024/01/07 14:02:40;;;;;;;10.10;7.80;;;;;;;;;;5023332;28;20219;-71
2024/01/07 14:05:10;;;;;;;8.53;7.10;;;;;;;;;;5022403;28;20305;-71
2024/01/07 14:07:38;;;;;;;10.47;7.63;;;;;;;;;;5003590;28;20666;-71
2024/01/07 14:10:06;;;;;;;10.90;7.93;;;;;;;;;;5000418;28;20234;-73
2024/01/07 14:12:34;;;;;;;10.07;7.63;;;;;;;;;;5022576;28;20230;-69
2024/01/07 14:15:01;;;;;;;10.67;8.20;;;;;;;;;;5016033;28;20211;-71
2024/01/07 14:17:28;;;;;;;10.97;7.90;;;;;;;;;;5001782;28;20200;-71
2024/01/07 14:19:56;;;;;;;12.00;9.40;;;;;;;;;;5006745;28;20200;-70
2024/01/07 14:22:23;;;;;;;9.33;7.57;;;;;;;;;;5007764;28;20227;-71
2024/01/07 14:24:51;;;;;;;27.67;15.20;;;;;;;;;;5019170;28;20624;-70
2024/01/07 14:27:18;;;;;;;15.67;11.13;;;;;;;;;;5009529;28;20659;-71
2024/01/07 14:29:46;;;;;;;12.27;9.30;;;;;;;;;;5008264;28;20226;-71
2024/01/07 14:32:13;;;;;;;15.43;11.00;;;;;;;;;;5017393;28;20773;-71